Aviation Digital Data Service (ADDS)

Output produced by METARs form (1638 UTC 23 November 2017)
found at http://www.aviationweather.gov/adds/metars/
 
KSMO 231551Z 03004KT 10SM CLR 25/04 A3003 RMK AO2 SLP165 T02500044
KSMO 231123Z 2312/2412 07005KT P6SM SKC 
     FM231500 VRB03KT P6SM SKC 
     FM232000 23006KT P6SM SCT250 
     FM240200 VRB03KT P6SM SCT250
       
KLAX 231553Z 05003KT 10SM FEW100 FEW250 24/05 A3002 RMK AO2 SLP164 T02390050
KLAX 231435Z 2315/2418 06005KT P6SM SKC 
     FM232100 27008KT P6SM SCT250 
     FM240400 VRB03KT P6SM SCT250
       
KVNY 231551Z 30003KT 10SM CLR 19/04 A3006 RMK AO2 SLP170 T01890044
KVNY 231123Z 2312/2412 VRB03KT P6SM SCT250
       
KCMA 231555Z 30003KT 10SM CLR 21/07 A3002 RMK AO2 SLP175 T02060072
KCMA 231123Z 2312/2412 04006KT P6SM SKC 
     FM232000 24008KT P6SM SCT250 
     FM240200 VRB03KT P6SM SCT250 
     FM241100 06005KT P6SM SCT250